sensor_id;sensor_type;location;lat;lon;timestamp;P1;durP1;ratioP1;P2;durP2;ratioP2
13741;SDS011;8461;52.356;10.704;2022-08-21T00:01:30;4.13;;;1.73;;
13741;SDS011;8461;52.356;10.704;2022-08-21T00:03:56;4.50;;;1.70;;
13741;SDS011;8461;52.356;10.704;2022-08-21T00:06:22;3.90;;;1.43;;
13741;SDS011;8461;52.356;10.704;2022-08-21T00:08:49;2.80;;;1.50;;
13741;SDS011;8461;52.356;10.704;2022-08-21T00:11:15;4.77;;;1.73;;
13741;SDS011;8461;52.356;10.704;2022-08-21T00:13:41;2.30;;;1.37;;
13741;SDS011;8461;52.356;10.704;2022-08-21T00:16:07;3.53;;;1.83;;
13741;SDS011;8461;52.356;10.704;2022-08-21T00:18:32;3.67;;;1.50;;
13741;SDS011;8461;52.356;10.704;2022-08-21T00:20:58;3.43;;;1.57;;
13741;SDS011;8461;52.356;10.704;2022-08-21T00:23:24;4.07;;;1.40;;
13741;SDS011;8461;52.356;10.704;2022-08-21T00:25:50;3.83;;;1.80;;
13741;SDS011;8461;52.356;10.704;2022-08-21T00:28:15;2.23;;;1.60;;
13741;SDS011;8461;52.356;10.704;2022-08-21T00:30:42;2.63;;;1.50;;
13741;SDS011;8461;52.356;10.704;2022-08-21T00:33:09;3.20;;;1.90;;
13741;SDS011;8461;52.356;10.704;2022-08-21T00:35:36;4.20;;;1.70;;
13741;SDS011;8461;52.356;10.704;2022-08-21T00:38:04;4.83;;;2.10;;
13741;SDS011;8461;52.356;10.704;2022-08-21T00:40:37;2.13;;;1.87;;
13741;SDS011;8461;52.356;10.704;2022-08-21T00:43:03;2.47;;;1.87;;
13741;SDS011;8461;52.356;10.704;2022-08-21T00:45:30;5.60;;;2.10;;
13741;SDS011;8461;52.356;10.704;2022-08-21T00:47:56;2.17;;;1.77;;
13741;SDS011;8461;52.356;10.704;2022-08-21T00:50:22;2.57;;;0.90;;
13741;SDS011;8461;52.356;10.704;2022-08-21T00:52:52;0.70;;;0.60;;
13741;SDS011;8461;52.356;10.704;2022-08-21T00:55:18;2.30;;;1.50;;
13741;SDS011;8461;52.356;10.704;2022-08-21T00:57:46;0.90;;;0.80;;
13741;SDS011;8461;52.356;10.704;2022-08-21T01:00:16;1.77;;;0.60;;
13741;SDS011;8461;52.356;10.704;2022-08-21T01:02:44;1.77;;;0.77;;
13741;SDS011;8461;52.356;10.704;2022-08-21T01:05:10;1.70;;;0.70;;
13741;SDS011;8461;52.356;10.704;2022-08-21T01:07:37;0.90;;;0.70;;
13741;SDS011;8461;52.356;10.704;2022-08-21T01:10:04;0.70;;;0.60;;
13741;SDS011;8461;52.356;10.704;2022-08-21T01:12:31;1.00;;;0.80;;
13741;SDS011;8461;52.356;10.704;2022-08-21T01:14:57;0.77;;;0.77;;
13741;SDS011;8461;52.356;10.704;2022-08-21T01:17:24;0.80;;;0.80;;
13741;SDS011;8461;52.356;10.704;2022-08-21T01:19:51;1.20;;;0.60;;
13741;SDS011;8461;52.356;10.704;2022-08-21T01:22:17;1.10;;;0.50;;
13741;SDS011;8461;52.356;10.704;2022-08-21T01:24:44;1.43;;;0.70;;
13741;SDS011;8461;52.356;10.704;2022-08-21T01:27:09;1.10;;;0.70;;
13741;SDS011;8461;52.356;10.704;2022-08-21T01:29:41;0.87;;;0.70;;
13741;SDS011;8461;52.356;10.704;2022-08-21T01:32:12;0.70;;;0.60;;
13741;SDS011;8461;52.356;10.704;2022-08-21T01:34:41;0.63;;;0.50;;
13741;SDS011;8461;52.356;10.704;2022-08-21T01:37:09;1.27;;;0.60;;
13741;SDS011;8461;52.356;10.704;2022-08-21T01:39:35;1.40;;;0.70;;
13741;SDS011;8461;52.356;10.704;2022-08-21T01:42:02;2.47;;;1.27;;
13741;SDS011;8461;52.356;10.704;2022-08-21T01:44:28;2.17;;;0.90;;
13741;SDS011;8461;52.356;10.704;2022-08-21T01:46:55;1.57;;;0.90;;
13741;SDS011;8461;52.356;10.704;2022-08-21T01:49:23;1.00;;;0.80;;
13741;SDS011;8461;52.356;10.704;2022-08-21T01:51:49;1.77;;;0.60;;
13741;SDS011;8461;52.356;10.704;2022-08-21T01:54:14;1.50;;;1.00;;
13741;SDS011;8461;52.356;10.704;2022-08-21T01:56:41;2.00;;;1.10;;
13741;SDS011;8461;52.356;10.704;2022-08-21T01:59:09;1.67;;;1.03;;
13741;SDS011;8461;52.356;10.704;2022-08-21T02:01:36;1.40;;;1.00;;
13741;SDS011;8461;52.356;10.704;2022-08-21T02:04:04;1.50;;;0.80;;
13741;SDS011;8461;52.356;10.704;2022-08-21T02:06:30;1.33;;;0.90;;
13741;SDS011;8461;52.356;10.704;2022-08-21T02:08:56;1.10;;;0.80;;
13741;SDS011;8461;52.356;10.704;2022-08-21T02:11:21;1.60;;;0.60;;
13741;SDS011;8461;52.356;10.704;2022-08-21T02:13:47;2.77;;;0.50;;
13741;SDS011;8461;52.356;10.704;2022-08-21T02:16:13;1.43;;;0.80;;
13741;SDS011;8461;52.356;10.704;2022-08-21T02:18:39;0.60;;;0.60;;
13741;SDS011;8461;52.356;10.704;2022-08-21T02:21:05;1.90;;;0.90;;
13741;SDS011;8461;52.356;10.704;2022-08-21T02:23:31;1.60;;;0.67;;
13741;SDS011;8461;52.356;10.704;2022-08-21T02:25:57;1.70;;;0.63;;
13741;SDS011;8461;52.356;10.704;2022-08-21T02:28:24;0.47;;;0.47;;
13741;SDS011;8461;52.356;10.704;2022-08-21T02:30:51;1.13;;;0.57;;
13741;SDS011;8461;52.356;10.704;2022-08-21T02:33:17;1.80;;;1.00;;
13741;SDS011;8461;52.356;10.704;2022-08-21T02:35:43;0.97;;;0.70;;
13741;SDS011;8461;52.356;10.704;2022-08-21T02:38:12;2.83;;;1.00;;
13741;SDS011;8461;52.356;10.704;2022-08-21T02:40:41;2.00;;;0.60;;
13741;SDS011;8461;52.356;10.704;2022-08-21T02:43:08;0.90;;;0.50;;
13741;SDS011;8461;52.356;10.704;2022-08-21T02:45:34;1.83;;;0.63;;
13741;SDS011;8461;52.356;10.704;2022-08-21T02:48:02;1.57;;;1.03;;
13741;SDS011;8461;52.356;10.704;2022-08-21T02:50:31;1.60;;;0.70;;
13741;SDS011;8461;52.356;10.704;2022-08-21T02:53:00;2.13;;;0.73;;
13741;SDS011;8461;52.356;10.704;2022-08-21T02:55:26;0.80;;;0.60;;
13741;SDS011;8461;52.356;10.704;2022-08-21T02:57:53;0.37;;;0.20;;
13741;SDS011;8461;52.356;10.704;2022-08-21T03:00:21;0.20;;;0.20;;
13741;SDS011;8461;52.356;10.704;2022-08-21T03:02:49;0.70;;;0.20;;
13741;SDS011;8461;52.356;10.704;2022-08-21T03:05:15;0.63;;;0.30;;
13741;SDS011;8461;52.356;10.704;2022-08-21T03:07:43;0.83;;;0.20;;
13741;SDS011;8461;52.356;10.704;2022-08-21T03:10:09;0.20;;;0.10;;
13741;SDS011;8461;52.356;10.704;2022-08-21T03:12:35;0.57;;;0.17;;
13741;SDS011;8461;52.356;10.704;2022-08-21T03:15:02;0.60;;;0.40;;
13741;SDS011;8461;52.356;10.704;2022-08-21T03:17:35;0.10;;;0.10;;
13741;SDS011;8461;52.356;10.704;2022-08-21T03:20:00;0.53;;;0.30;;
13741;SDS011;8461;52.356;10.704;2022-08-21T03:22:28;1.53;;;0.30;;
13741;SDS011;8461;52.356;10.704;2022-08-21T03:24:53;0.33;;;0.33;;
13741;SDS011;8461;52.356;10.704;2022-08-21T03:27:19;1.80;;;0.40;;
13741;SDS011;8461;52.356;10.704;2022-08-21T03:29:45;0.80;;;0.50;;
13741;SDS011;8461;52.356;10.704;2022-08-21T03:32:10;1.00;;;0.70;;
13741;SDS011;8461;52.356;10.704;2022-08-21T03:34:36;0.47;;;0.40;;
13741;SDS011;8461;52.356;10.704;2022-08-21T03:37:04;1.07;;;0.80;;
13741;SDS011;8461;52.356;10.704;2022-08-21T03:39:30;0.87;;;0.83;;
13741;SDS011;8461;52.356;10.704;2022-08-21T03:41:56;0.60;;;0.60;;
13741;SDS011;8461;52.356;10.704;2022-08-21T03:44:22;1.70;;;0.70;;
13741;SDS011;8461;52.356;10.704;2022-08-21T03:46:47;1.57;;;0.83;;
13741;SDS011;8461;52.356;10.704;2022-08-21T03:49:13;1.70;;;0.80;;
13741;SDS011;8461;52.356;10.704;2022-08-21T03:51:39;1.30;;;0.80;;
13741;SDS011;8461;52.356;10.704;2022-08-21T03:54:05;1.80;;;0.70;;
13741;SDS011;8461;52.356;10.704;2022-08-21T03:56:30;1.90;;;0.97;;
13741;SDS011;8461;52.356;10.704;2022-08-21T03:58:56;1.90;;;0.50;;
13741;SDS011;8461;52.356;10.704;2022-08-21T04:01:22;0.50;;;0.40;;
13741;SDS011;8461;52.356;10.704;2022-08-21T04:03:47;1.10;;;0.63;;
13741;SDS011;8461;52.356;10.704;2022-08-21T04:06:13;1.03;;;0.67;;
13741;SDS011;8461;52.356;10.704;2022-08-21T04:08:38;2.17;;;0.70;;
13741;SDS011;8461;52.356;10.704;2022-08-21T04:11:07;0.77;;;0.50;;
13741;SDS011;8461;52.356;10.704;2022-08-21T04:13:32;1.90;;;0.90;;
13741;SDS011;8461;52.356;10.704;2022-08-21T04:15:59;1.43;;;0.80;;
13741;SDS011;8461;52.356;10.704;2022-08-21T04:18:24;1.03;;;0.63;;
13741;SDS011;8461;52.356;10.704;2022-08-21T04:20:50;2.93;;;1.10;;
13741;SDS011;8461;52.356;10.704;2022-08-21T04:23:18;2.33;;;0.83;;
13741;SDS011;8461;52.356;10.704;2022-08-21T04:25:44;0.40;;;0.40;;
13741;SDS011;8461;52.356;10.704;2022-08-21T04:28:10;0.53;;;0.53;;
13741;SDS011;8461;52.356;10.704;2022-08-21T04:30:35;0.60;;;0.50;;
13741;SDS011;8461;52.356;10.704;2022-08-21T04:33:01;0.83;;;0.50;;
13741;SDS011;8461;52.356;10.704;2022-08-21T04:35:28;1.40;;;0.77;;
13741;SDS011;8461;52.356;10.704;2022-08-21T04:37:55;1.57;;;1.00;;
13741;SDS011;8461;52.356;10.704;2022-08-21T04:40:21;0.80;;;0.73;;
13741;SDS011;8461;52.356;10.704;2022-08-21T04:42:50;1.23;;;1.07;;
13741;SDS011;8461;52.356;10.704;2022-08-21T04:45:31;1.43;;;1.00;;
13741;SDS011;8461;52.356;10.704;2022-08-21T04:47:59;1.40;;;0.80;;
13741;SDS011;8461;52.356;10.704;2022-08-21T04:50:31;0.60;;;0.60;;
13741;SDS011;8461;52.356;10.704;2022-08-21T04:53:16;1.03;;;0.70;;
13741;SDS011;8461;52.356;10.704;2022-08-21T04:55:44;0.60;;;0.60;;
13741;SDS011;8461;52.356;10.704;2022-08-21T04:58:12;1.00;;;0.67;;
13741;SDS011;8461;52.356;10.704;2022-08-21T05:00:39;1.57;;;0.80;;
13741;SDS011;8461;52.356;10.704;2022-08-21T05:03:05;0.50;;;0.50;;
13741;SDS011;8461;52.356;10.704;2022-08-21T05:05:34;0.50;;;0.50;;
13741;SDS011;8461;52.356;10.704;2022-08-21T05:08:01;1.17;;;0.60;;
13741;SDS011;8461;52.356;10.704;2022-08-21T05:10:27;1.13;;;0.70;;
13741;SDS011;8461;52.356;10.704;2022-08-21T05:12:53;1.80;;;0.50;;
13741;SDS011;8461;52.356;10.704;2022-08-21T05:15:19;0.30;;;0.30;;
13741;SDS011;8461;52.356;10.704;2022-08-21T05:17:45;1.60;;;0.43;;
13741;SDS011;8461;52.356;10.704;2022-08-21T05:20:11;0.80;;;0.40;;
13741;SDS011;8461;52.356;10.704;2022-08-21T05:22:38;0.83;;;0.77;;
13741;SDS011;8461;52.356;10.704;2022-08-21T05:25:05;1.70;;;0.50;;
13741;SDS011;8461;52.356;10.704;2022-08-21T05:27:31;0.40;;;0.40;;
13741;SDS011;8461;52.356;10.704;2022-08-21T05:29:57;0.53;;;0.50;;
13741;SDS011;8461;52.356;10.704;2022-08-21T05:32:23;1.13;;;0.50;;
13741;SDS011;8461;52.356;10.704;2022-08-21T05:34:50;0.60;;;0.60;;
13741;SDS011;8461;52.356;10.704;2022-08-21T05:37:15;0.70;;;0.53;;
13741;SDS011;8461;52.356;10.704;2022-08-21T05:39:41;1.27;;;0.80;;
13741;SDS011;8461;52.356;10.704;2022-08-21T05:42:06;1.93;;;0.90;;
13741;SDS011;8461;52.356;10.704;2022-08-21T05:44:32;2.03;;;1.03;;
13741;SDS011;8461;52.356;10.704;2022-08-21T05:47:06;1.17;;;0.80;;
13741;SDS011;8461;52.356;10.704;2022-08-21T05:49:33;1.60;;;0.73;;
13741;SDS011;8461;52.356;10.704;2022-08-21T05:51:59;0.87;;;0.87;;
13741;SDS011;8461;52.356;10.704;2022-08-21T05:54:25;1.20;;;1.10;;
13741;SDS011;8461;52.356;10.704;2022-08-21T05:56:50;2.87;;;1.47;;
13741;SDS011;8461;52.356;10.704;2022-08-21T05:59:16;2.03;;;1.60;;
13741;SDS011;8461;52.356;10.704;2022-08-21T06:01:43;1.47;;;1.37;;
13741;SDS011;8461;52.356;10.704;2022-08-21T06:04:10;3.13;;;1.73;;
13741;SDS011;8461;52.356;10.704;2022-08-21T06:06:36;3.53;;;2.10;;
13741;SDS011;8461;52.356;10.704;2022-08-21T06:09:02;3.07;;;1.80;;
13741;SDS011;8461;52.356;10.704;2022-08-21T06:11:28;2.70;;;1.90;;
13741;SDS011;8461;52.356;10.704;2022-08-21T06:13:54;2.80;;;1.97;;
13741;SDS011;8461;52.356;10.704;2022-08-21T06:16:20;5.83;;;2.17;;
13741;SDS011;8461;52.356;10.704;2022-08-21T06:18:46;4.50;;;1.80;;
13741;SDS011;8461;52.356;10.704;2022-08-21T06:21:12;5.10;;;2.07;;
13741;SDS011;8461;52.356;10.704;2022-08-21T06:23:38;3.20;;;2.07;;
13741;SDS011;8461;52.356;10.704;2022-08-21T06:26:05;3.93;;;2.60;;
13741;SDS011;8461;52.356;10.704;2022-08-21T06:28:32;3.47;;;2.03;;
13741;SDS011;8461;52.356;10.704;2022-08-21T06:30:58;4.17;;;2.37;;
13741;SDS011;8461;52.356;10.704;2022-08-21T06:33:23;3.80;;;2.17;;
13741;SDS011;8461;52.356;10.704;2022-08-21T06:35:50;4.37;;;2.33;;
13741;SDS011;8461;52.356;10.704;2022-08-21T06:38:15;4.90;;;2.00;;
13741;SDS011;8461;52.356;10.704;2022-08-21T06:40:41;4.40;;;1.73;;
13741;SDS011;8461;52.356;10.704;2022-08-21T06:43:11;6.27;;;2.17;;
13741;SDS011;8461;52.356;10.704;2022-08-21T06:45:38;4.90;;;2.07;;
13741;SDS011;8461;52.356;10.704;2022-08-21T06:48:04;4.77;;;1.87;;
13741;SDS011;8461;52.356;10.704;2022-08-21T06:50:31;5.67;;;1.50;;
13741;SDS011;8461;52.356;10.704;2022-08-21T06:52:59;4.13;;;1.70;;
13741;SDS011;8461;52.356;10.704;2022-08-21T06:55:31;2.80;;;2.00;;
13741;SDS011;8461;52.356;10.704;2022-08-21T06:57:57;2.70;;;1.73;;
13741;SDS011;8461;52.356;10.704;2022-08-21T07:00:23;3.57;;;1.63;;
13741;SDS011;8461;52.356;10.704;2022-08-21T07:02:49;3.63;;;1.40;;
13741;SDS011;8461;52.356;10.704;2022-08-21T07:05:15;4.97;;;1.40;;
13741;SDS011;8461;52.356;10.704;2022-08-21T07:07:40;3.43;;;1.20;;
13741;SDS011;8461;52.356;10.704;2022-08-21T07:10:06;5.47;;;1.50;;
13741;SDS011;8461;52.356;10.704;2022-08-21T07:12:32;2.93;;;1.37;;
13741;SDS011;8461;52.356;10.704;2022-08-21T07:14:57;3.00;;;1.10;;
13741;SDS011;8461;52.356;10.704;2022-08-21T07:17:23;3.63;;;1.47;;
13741;SDS011;8461;52.356;10.704;2022-08-21T07:19:48;3.83;;;1.40;;
13741;SDS011;8461;52.356;10.704;2022-08-21T07:22:16;7.40;;;2.03;;
13741;SDS011;8461;52.356;10.704;2022-08-21T07:24:44;2.50;;;1.13;;
13741;SDS011;8461;52.356;10.704;2022-08-21T07:27:09;8.30;;;1.53;;
13741;SDS011;8461;52.356;10.704;2022-08-21T07:29:35;3.50;;;1.30;;
13741;SDS011;8461;52.356;10.704;2022-08-21T07:32:01;2.57;;;1.30;;
13741;SDS011;8461;52.356;10.704;2022-08-21T07:34:26;4.67;;;1.40;;
13741;SDS011;8461;52.356;10.704;2022-08-21T07:36:52;2.30;;;1.27;;
13741;SDS011;8461;52.356;10.704;2022-08-21T07:39:17;2.30;;;1.10;;
13741;SDS011;8461;52.356;10.704;2022-08-21T07:41:43;4.13;;;1.30;;
13741;SDS011;8461;52.356;10.704;2022-08-21T07:44:08;3.63;;;1.40;;
13741;SDS011;8461;52.356;10.704;2022-08-21T07:46:34;2.70;;;1.30;;
13741;SDS011;8461;52.356;10.704;2022-08-21T07:49:00;2.83;;;1.30;;
13741;SDS011;8461;52.356;10.704;2022-08-21T07:51:26;3.17;;;1.00;;
13741;SDS011;8461;52.356;10.704;2022-08-21T07:53:54;2.40;;;1.10;;
13741;SDS011;8461;52.356;10.704;2022-08-21T07:56:21;5.33;;;1.37;;
13741;SDS011;8461;52.356;10.704;2022-08-21T07:58:47;3.73;;;1.20;;
13741;SDS011;8461;52.356;10.704;2022-08-21T08:01:13;7.67;;;1.10;;
13741;SDS011;8461;52.356;10.704;2022-08-21T08:03:38;4.30;;;1.40;;
13741;SDS011;8461;52.356;10.704;2022-08-21T08:06:04;6.00;;;1.23;;
13741;SDS011;8461;52.356;10.704;2022-08-21T08:08:32;4.93;;;1.30;;
13741;SDS011;8461;52.356;10.704;2022-08-21T08:10:57;4.93;;;1.43;;
13741;SDS011;8461;52.356;10.704;2022-08-21T08:13:24;3.93;;;1.50;;
13741;SDS011;8461;52.356;10.704;2022-08-21T08:15:49;2.97;;;1.50;;
13741;SDS011;8461;52.356;10.704;2022-08-21T08:18:15;3.43;;;1.50;;
13741;SDS011;8461;52.356;10.704;2022-08-21T08:20:41;5.27;;;1.40;;
13741;SDS011;8461;52.356;10.704;2022-08-21T08:23:07;6.17;;;1.50;;
13741;SDS011;8461;52.356;10.704;2022-08-21T08:25:35;3.43;;;1.27;;
13741;SDS011;8461;52.356;10.704;2022-08-21T08:28:00;4.87;;;1.47;;
13741;SDS011;8461;52.356;10.704;2022-08-21T08:30:26;3.83;;;1.33;;
13741;SDS011;8461;52.356;10.704;2022-08-21T08:32:51;1.80;;;1.17;;
13741;SDS011;8461;52.356;10.704;2022-08-21T08:35:17;3.70;;;1.53;;
13741;SDS011;8461;52.356;10.704;2022-08-21T08:37:43;3.83;;;1.00;;
13741;SDS011;8461;52.356;10.704;2022-08-21T08:40:14;4.00;;;1.10;;
13741;SDS011;8461;52.356;10.704;2022-08-21T08:42:47;4.03;;;1.20;;
13741;SDS011;8461;52.356;10.704;2022-08-21T08:45:16;4.70;;;1.20;;
13741;SDS011;8461;52.356;10.704;2022-08-21T08:47:46;4.50;;;1.10;;
13741;SDS011;8461;52.356;10.704;2022-08-21T08:50:22;1.87;;;1.57;;
13741;SDS011;8461;52.356;10.704;2022-08-21T08:53:11;2.37;;;1.10;;
13741;SDS011;8461;52.356;10.704;2022-08-21T08:55:42;3.73;;;1.37;;
13741;SDS011;8461;52.356;10.704;2022-08-21T08:58:16;3.13;;;1.50;;
13741;SDS011;8461;52.356;10.704;2022-08-21T09:00:49;4.20;;;1.87;;
13741;SDS011;8461;52.356;10.704;2022-08-21T09:03:16;2.93;;;1.30;;
13741;SDS011;8461;52.356;10.704;2022-08-21T09:11:03;5.13;;;1.57;;
13741;SDS011;8461;52.356;10.704;2022-08-21T09:14:11;3.97;;;1.93;;
13741;SDS011;8461;52.356;10.704;2022-08-21T09:23:01;4.97;;;1.70;;
13741;SDS011;8461;52.356;10.704;2022-08-21T09:26:12;5.53;;;1.97;;
13741;SDS011;8461;52.356;10.704;2022-08-21T09:28:43;7.73;;;1.70;;
13741;SDS011;8461;52.356;10.704;2022-08-21T09:31:19;3.77;;;1.70;;
13741;SDS011;8461;52.356;10.704;2022-08-21T09:33:49;8.10;;;1.97;;
13741;SDS011;8461;52.356;10.704;2022-08-21T09:36:25;5.43;;;1.90;;
13741;SDS011;8461;52.356;10.704;2022-08-21T09:39:22;8.10;;;2.13;;
13741;SDS011;8461;52.356;10.704;2022-08-21T09:41:54;8.47;;;2.10;;
13741;SDS011;8461;52.356;10.704;2022-08-21T09:44:25;4.93;;;2.07;;
13741;SDS011;8461;52.356;10.704;2022-08-21T09:46:52;6.30;;;2.07;;
13741;SDS011;8461;52.356;10.704;2022-08-21T09:49:26;3.87;;;1.80;;
13741;SDS011;8461;52.356;10.704;2022-08-21T09:51:56;4.43;;;1.80;;
13741;SDS011;8461;52.356;10.704;2022-08-21T09:54:26;5.07;;;2.20;;
13741;SDS011;8461;52.356;10.704;2022-08-21T09:56:59;6.10;;;1.97;;
13741;SDS011;8461;52.356;10.704;2022-08-21T10:02:44;6.40;;;2.50;;
13741;SDS011;8461;52.356;10.704;2022-08-21T10:07:41;6.27;;;2.00;;
13741;SDS011;8461;52.356;10.704;2022-08-21T10:12:50;6.37;;;2.07;;
13741;SDS011;8461;52.356;10.704;2022-08-21T10:18:09;5.50;;;2.40;;
13741;SDS011;8461;52.356;10.704;2022-08-21T10:20:53;4.50;;;2.23;;
13741;SDS011;8461;52.356;10.704;2022-08-21T10:23:37;3.63;;;2.17;;
13741;SDS011;8461;52.356;10.704;2022-08-21T10:28:55;5.23;;;3.40;;
13741;SDS011;8461;52.356;10.704;2022-08-21T10:31:53;6.30;;;3.20;;
13741;SDS011;8461;52.356;10.704;2022-08-21T10:34:33;8.50;;;2.43;;
13741;SDS011;8461;52.356;10.704;2022-08-21T10:37:17;9.23;;;2.50;;
13741;SDS011;8461;52.356;10.704;2022-08-21T10:39:58;6.83;;;2.57;;
13741;SDS011;8461;52.356;10.704;2022-08-21T10:42:31;7.53;;;3.00;;
13741;SDS011;8461;52.356;10.704;2022-08-21T10:45:17;6.07;;;2.67;;
13741;SDS011;8461;52.356;10.704;2022-08-21T10:47:54;9.50;;;3.03;;
13741;SDS011;8461;52.356;10.704;2022-08-21T10:50:31;7.93;;;2.60;;
13741;SDS011;8461;52.356;10.704;2022-08-21T10:53:19;7.80;;;2.40;;
13741;SDS011;8461;52.356;10.704;2022-08-21T11:00:54;6.30;;;2.30;;
13741;SDS011;8461;52.356;10.704;2022-08-21T11:03:44;7.70;;;2.27;;
13741;SDS011;8461;52.356;10.704;2022-08-21T11:06:13;6.63;;;2.50;;
13741;SDS011;8461;52.356;10.704;2022-08-21T11:08:53;6.90;;;2.60;;
13741;SDS011;8461;52.356;10.704;2022-08-21T11:11:29;6.70;;;2.40;;
13741;SDS011;8461;52.356;10.704;2022-08-21T11:16:53;7.50;;;2.30;;
13741;SDS011;8461;52.356;10.704;2022-08-21T11:19:35;9.43;;;2.50;;
13741;SDS011;8461;52.356;10.704;2022-08-21T11:27:38;6.87;;;1.90;;
13741;SDS011;8461;52.356;10.704;2022-08-21T11:30:15;4.40;;;2.00;;
13741;SDS011;8461;52.356;10.704;2022-08-21T11:41:23;7.37;;;2.07;;
13741;SDS011;8461;52.356;10.704;2022-08-21T11:52:41;4.83;;;1.83;;
13741;SDS011;8461;52.356;10.704;2022-08-21T11:55:12;7.35;;;2.00;;
13741;SDS011;8461;52.356;10.704;2022-08-21T12:02:56;6.15;;;2.17;;
13741;SDS011;8461;52.356;10.704;2022-08-21T12:05:37;7.25;;;2.40;;
13741;SDS011;8461;52.356;10.704;2022-08-21T12:08:26;5.63;;;1.85;;
13741;SDS011;8461;52.356;10.704;2022-08-21T12:13:52;3.50;;;1.83;;
13741;SDS011;8461;52.356;10.704;2022-08-21T12:16:35;3.88;;;1.73;;
13741;SDS011;8461;52.356;10.704;2022-08-21T12:19:03;6.07;;;1.83;;
13741;SDS011;8461;52.356;10.704;2022-08-21T12:24:43;6.65;;;1.80;;
13741;SDS011;8461;52.356;10.704;2022-08-21T12:29:51;3.78;;;1.65;;
13741;SDS011;8461;52.356;10.704;2022-08-21T12:32:28;6.53;;;1.88;;
13741;SDS011;8461;52.356;10.704;2022-08-21T12:35:16;5.30;;;1.70;;
13741;SDS011;8461;52.356;10.704;2022-08-21T12:37:50;4.40;;;1.75;;
13741;SDS011;8461;52.356;10.704;2022-08-21T12:40:23;4.03;;;1.40;;
13741;SDS011;8461;52.356;10.704;2022-08-21T12:42:55;2.38;;;1.15;;
13741;SDS011;8461;52.356;10.704;2022-08-21T12:45:37;5.90;;;1.75;;
13741;SDS011;8461;52.356;10.704;2022-08-21T12:48:09;3.03;;;1.48;;
13741;SDS011;8461;52.356;10.704;2022-08-21T12:50:51;3.72;;;1.33;;
13741;SDS011;8461;52.356;10.704;2022-08-21T12:53:33;3.78;;;1.40;;
13741;SDS011;8461;52.356;10.704;2022-08-21T12:56:08;3.47;;;1.40;;
13741;SDS011;8461;52.356;10.704;2022-08-21T12:58:35;4.10;;;1.60;;
13741;SDS011;8461;52.356;10.704;2022-08-21T13:01:06;3.45;;;1.38;;
13741;SDS011;8461;52.356;10.704;2022-08-21T13:03:37;4.75;;;1.38;;
13741;SDS011;8461;52.356;10.704;2022-08-21T13:06:05;2.13;;;1.13;;
13741;SDS011;8461;52.356;10.704;2022-08-21T13:08:32;5.13;;;1.40;;
13741;SDS011;8461;52.356;10.704;2022-08-21T13:11:03;3.35;;;1.02;;
13741;SDS011;8461;52.356;10.704;2022-08-21T13:13:30;4.13;;;1.27;;
13741;SDS011;8461;52.356;10.704;2022-08-21T13:16:02;4.85;;;1.63;;
13741;SDS011;8461;52.356;10.704;2022-08-21T13:18:30;4.82;;;1.30;;
13741;SDS011;8461;52.356;10.704;2022-08-21T13:21:09;3.40;;;1.13;;
13741;SDS011;8461;52.356;10.704;2022-08-21T13:23:37;3.00;;;1.17;;
13741;SDS011;8461;52.356;10.704;2022-08-21T13:26:17;3.63;;;1.23;;
13741;SDS011;8461;52.356;10.704;2022-08-21T13:28:45;4.63;;;1.67;;
13741;SDS011;8461;52.356;10.704;2022-08-21T13:31:12;3.40;;;1.45;;
13741;SDS011;8461;52.356;10.704;2022-08-21T13:33:43;4.05;;;1.38;;
13741;SDS011;8461;52.356;10.704;2022-08-21T13:36:20;3.65;;;1.20;;
13741;SDS011;8461;52.356;10.704;2022-08-21T13:38:54;5.45;;;1.35;;
13741;SDS011;8461;52.356;10.704;2022-08-21T13:41:24;4.70;;;1.23;;
13741;SDS011;8461;52.356;10.704;2022-08-21T13:43:58;2.60;;;1.15;;
13741;SDS011;8461;52.356;10.704;2022-08-21T13:46:24;2.53;;;1.20;;
13741;SDS011;8461;52.356;10.704;2022-08-21T13:48:54;2.50;;;1.30;;
13741;SDS011;8461;52.356;10.704;2022-08-21T13:51:20;3.47;;;1.02;;
13741;SDS011;8461;52.356;10.704;2022-08-21T13:53:47;3.55;;;1.48;;
13741;SDS011;8461;52.356;10.704;2022-08-21T13:56:25;1.80;;;0.82;;
13741;SDS011;8461;52.356;10.704;2022-08-21T13:58:54;3.05;;;0.95;;
13741;SDS011;8461;52.356;10.704;2022-08-21T14:01:35;4.15;;;0.95;;
13741;SDS011;8461;52.356;10.704;2022-08-21T14:04:18;2.38;;;1.13;;
13741;SDS011;8461;52.356;10.704;2022-08-21T14:06:48;2.25;;;0.93;;
13741;SDS011;8461;52.356;10.704;2022-08-21T14:11:58;1.88;;;0.90;;
13741;SDS011;8461;52.356;10.704;2022-08-21T14:14:37;2.38;;;1.17;;
13741;SDS011;8461;52.356;10.704;2022-08-21T14:17:06;3.40;;;1.30;;
13741;SDS011;8461;52.356;10.704;2022-08-21T14:19:42;2.42;;;1.02;;
13741;SDS011;8461;52.356;10.704;2022-08-21T14:25:04;5.18;;;1.05;;
13741;SDS011;8461;52.356;10.704;2022-08-21T14:27:37;4.10;;;0.80;;
13741;SDS011;8461;52.356;10.704;2022-08-21T14:32:52;3.38;;;1.00;;
13741;SDS011;8461;52.356;10.704;2022-08-21T14:35:18;2.28;;;0.80;;
13741;SDS011;8461;52.356;10.704;2022-08-21T14:37:46;3.50;;;0.93;;
13741;SDS011;8461;52.356;10.704;2022-08-21T14:40:12;3.22;;;0.95;;
13741;SDS011;8461;52.356;10.704;2022-08-21T14:42:37;3.65;;;0.80;;
13741;SDS011;8461;52.356;10.704;2022-08-21T14:45:08;4.85;;;1.20;;
13741;SDS011;8461;52.356;10.704;2022-08-21T14:47:40;2.20;;;0.93;;
13741;SDS011;8461;52.356;10.704;2022-08-21T14:50:07;2.45;;;0.90;;
13741;SDS011;8461;52.356;10.704;2022-08-21T14:52:34;2.45;;;0.80;;
13741;SDS011;8461;52.356;10.704;2022-08-21T14:55:00;1.98;;;0.80;;
13741;SDS011;8461;52.356;10.704;2022-08-21T14:57:25;2.58;;;1.10;;
13741;SDS011;8461;52.356;10.704;2022-08-21T14:59:55;1.75;;;0.90;;
13741;SDS011;8461;52.356;10.704;2022-08-21T15:02:20;4.05;;;1.10;;
13741;SDS011;8461;52.356;10.704;2022-08-21T15:04:46;2.15;;;1.02;;
13741;SDS011;8461;52.356;10.704;2022-08-21T15:07:11;3.60;;;1.27;;
13741;SDS011;8461;52.356;10.704;2022-08-21T15:09:37;1.50;;;1.00;;
13741;SDS011;8461;52.356;10.704;2022-08-21T15:12:03;1.90;;;0.90;;
13741;SDS011;8461;52.356;10.704;2022-08-21T15:14:31;7.47;;;4.78;;
13741;SDS011;8461;52.356;10.704;2022-08-21T15:16:59;2.72;;;1.00;;
13741;SDS011;8461;52.356;10.704;2022-08-21T15:19:26;3.65;;;1.23;;
13741;SDS011;8461;52.356;10.704;2022-08-21T15:21:52;3.50;;;1.20;;
13741;SDS011;8461;52.356;10.704;2022-08-21T15:24:18;3.08;;;1.10;;
13741;SDS011;8461;52.356;10.704;2022-08-21T15:26:43;2.20;;;1.00;;
13741;SDS011;8461;52.356;10.704;2022-08-21T15:29:09;1.48;;;0.88;;
13741;SDS011;8461;52.356;10.704;2022-08-21T15:31:35;2.78;;;1.10;;
13741;SDS011;8461;52.356;10.704;2022-08-21T15:34:01;3.42;;;0.80;;
13741;SDS011;8461;52.356;10.704;2022-08-21T15:36:27;2.92;;;0.85;;
13741;SDS011;8461;52.356;10.704;2022-08-21T15:38:52;1.67;;;1.02;;
13741;SDS011;8461;52.356;10.704;2022-08-21T15:41:18;3.83;;;0.90;;
13741;SDS011;8461;52.356;10.704;2022-08-21T15:43:45;3.10;;;1.00;;
13741;SDS011;8461;52.356;10.704;2022-08-21T15:46:14;3.03;;;1.10;;
13741;SDS011;8461;52.356;10.704;2022-08-21T15:48:41;4.60;;;1.20;;
13741;SDS011;8461;52.356;10.704;2022-08-21T15:51:08;3.08;;;1.02;;
13741;SDS011;8461;52.356;10.704;2022-08-21T15:53:35;4.20;;;1.05;;
13741;SDS011;8461;52.356;10.704;2022-08-21T15:56:03;3.95;;;1.13;;
13741;SDS011;8461;52.356;10.704;2022-08-21T15:58:31;2.35;;;1.20;;
13741;SDS011;8461;52.356;10.704;2022-08-21T16:01:00;5.75;;;1.17;;
13741;SDS011;8461;52.356;10.704;2022-08-21T16:03:26;3.58;;;1.17;;
13741;SDS011;8461;52.356;10.704;2022-08-21T16:05:52;3.05;;;0.85;;
13741;SDS011;8461;52.356;10.704;2022-08-21T16:08:21;3.13;;;1.17;;
13741;SDS011;8461;52.356;10.704;2022-08-21T16:10:48;2.78;;;1.27;;
13741;SDS011;8461;52.356;10.704;2022-08-21T16:13:23;2.60;;;0.80;;
13741;SDS011;8461;52.356;10.704;2022-08-21T16:15:51;2.72;;;1.00;;
13741;SDS011;8461;52.356;10.704;2022-08-21T16:18:18;4.03;;;1.00;;